Time;durP1;ratioP1;P1;durP2;ratioP2;P2;SDS_P1;SDS_P2;PMS_P1;PMS_P2;Temp;Humidity;BMP_temperature;BMP_pressure;BME280_temperature;BME280_humidity;BME280_pressure;Samples;Min_cycle;Max_cycle;Signal;HPM_P1;HPM_P2
2021/12/16 00:01:46;;;;;;;28.05;15.25;;;7.10;99.90;;;;;;5087630;28;20053;-70
2021/12/16 00:06:15;;;;;;;33.15;16.00;;;7.20;99.90;;;;;;5088504;28;20049;-70
2021/12/16 00:08:33;;;;;;;33.72;16.00;;;7.20;99.90;;;;;;5060375;28;20109;-70
2021/12/16 00:11:17;;;;;;;31.23;16.42;;;7.30;99.90;;;;;;5055908;28;20080;-71
2021/12/16 00:19:43;;;;;;;28.38;15.15;;;7.40;99.90;;;;;;5090027;28;20052;-71
2021/12/16 00:33:14;;;;;;;31.90;16.13;;;7.40;99.90;;;;;;5074805;28;20068;-71
2021/12/16 00:35:42;;;;;;;34.55;15.38;;;7.50;99.90;;;;;;5047711;28;20052;-70
2021/12/16 00:38:09;;;;;;;34.47;16.00;;;7.50;99.90;;;;;;5058730;28;20530;-70
2021/12/16 00:40:39;;;;;;;35.25;16.85;;;7.50;99.90;;;;;;5093660;28;20501;-70
2021/12/16 00:43:21;;;;;;;35.38;18.90;;;7.50;99.90;;;;;;5073810;28;20044;-71
2021/12/16 00:46:12;;;;;;;30.48;15.07;;;7.50;99.90;;;;;;5063136;28;20215;-71
2021/12/16 00:56:35;;;;;;;32.67;17.15;;;7.50;99.90;;;;;;5091144;28;20053;-70
2021/12/16 00:59:04;;;;;;;35.65;16.90;;;7.50;99.90;;;;;;5059521;28;20049;-72
2021/12/16 01:01:42;;;;;;;35.97;16.65;;;7.50;99.90;;;;;;5026368;28;20554;-72
2021/12/16 01:04:50;;;;;;;37.33;18.45;;;7.50;99.90;;;;;;5025943;28;20052;-72
2021/12/16 01:38:15;;;;;;;35.05;16.98;;;7.60;99.90;;;;;;5043539;28;20064;-72
2021/12/16 01:50:19;;;;;;;33.28;16.60;;;7.50;99.90;;;;;;5043782;28;20548;-71
2021/12/16 01:55:33;;;;;;;31.88;17.67;;;7.50;99.90;;;;;;5090880;28;20060;-72
2021/12/16 01:58:11;;;;;;;30.55;17.50;;;7.50;99.90;;;;;;5058908;28;20045;-72
2021/12/16 02:00:55;;;;;;;34.85;18.42;;;7.50;99.90;;;;;;5040726;28;20057;-72
2021/12/16 02:03:28;;;;;;;37.25;17.23;;;7.50;99.90;;;;;;5075200;28;20060;-72
2021/12/16 02:08:55;;;;;;;36.83;17.00;;;7.50;99.90;;;;;;5032499;28;20119;-71
2021/12/16 02:36:14;;;;;;;39.90;19.83;;;7.40;99.90;;;;;;5088896;28;20048;-70
2021/12/16 02:38:44;;;;;;;33.45;17.88;;;7.40;99.90;;;;;;5054755;28;20053;-72
2021/12/16 02:41:10;;;;;;;36.58;18.17;;;7.40;99.90;;;;;;5059674;28;20507;-71
2021/12/16 02:48:40;;;;;;;38.78;18.90;;;7.40;99.90;;;;;;5041338;28;20095;-71
2021/12/16 02:51:14;;;;;;;37.92;18.88;;;7.40;99.90;;;;;;5055905;28;20044;-72
2021/12/16 02:53:53;;;;;;;41.10;17.38;;;7.40;99.90;;;;;;5074612;28;20080;-72
2021/12/16 02:56:19;;;;;;;35.97;20.08;;;7.40;99.90;;;;;;5054936;28;20053;-73
2021/12/16 02:58:49;;;;;;;40.38;18.73;;;7.40;99.90;;;;;;5074803;28;20068;-72
2021/12/16 03:01:25;;;;;;;39.70;18.02;;;7.40;99.90;;;;;;5056050;28;20045;-72
2021/12/16 03:03:52;;;;;;;43.22;19.60;;;7.40;99.90;;;;;;5089603;28;20567;-72
2021/12/16 03:06:18;;;;;;;40.95;18.45;;;7.40;99.90;;;;;;5059135;28;20060;-72
2021/12/16 03:08:45;;;;;;;39.58;18.23;;;7.40;99.90;;;;;;5037709;28;20048;-72
2021/12/16 03:14:03;;;;;;;40.75;18.80;;;7.40;99.90;;;;;;5039438;28;20488;-72
2021/12/16 03:19:14;;;;;;;36.80;17.93;;;7.40;99.90;;;;;;5088156;28;20064;-72
2021/12/16 03:21:48;;;;;;;39.92;19.98;;;7.40;99.90;;;;;;5035752;28;20048;-72
2021/12/16 03:27:26;;;;;;;39.05;19.30;;;7.40;99.90;;;;;;5055496;28;20056;-72
2021/12/16 03:32:41;;;;;;;37.55;18.63;;;7.40;99.90;;;;;;5037007;28;20049;-72
2021/12/16 03:35:28;;;;;;;37.95;19.17;;;7.40;99.90;;;;;;5055164;28;20068;-72
2021/12/16 03:37:58;;;;;;;41.45;19.25;;;7.50;99.90;;;;;;5055655;28;20049;-72
2021/12/16 03:40:25;;;;;;;42.35;19.42;;;7.50;99.90;;;;;;5057092;28;20063;-72
2021/12/16 03:43:14;;;;;;;40.58;18.63;;;7.50;99.90;;;;;;5054619;28;20048;-73
2021/12/16 03:49:00;;;;;;;38.97;19.63;;;7.50;99.90;;;;;;5090297;28;20548;-72
2021/12/16 03:51:47;;;;;;;36.83;18.63;;;7.50;99.90;;;;;;5086910;28;20045;-73
2021/12/16 03:54:23;;;;;;;36.47;18.15;;;7.50;99.90;;;;;;5073570;28;20052;-71
2021/12/16 03:56:50;;;;;;;38.15;19.50;;;7.50;99.90;;;;;;5055052;28;20049;-71
2021/12/16 03:59:25;;;;;;;36.83;18.05;;;7.50;99.90;;;;;;5089843;28;20084;-72
2021/12/16 04:01:53;;;;;;;36.63;18.45;;;7.50;99.90;;;;;;5081256;28;20049;-71
2021/12/16 04:04:19;;;;;;;39.55;19.13;;;7.50;99.90;;;;;;5067887;28;20053;-72
2021/12/16 04:06:45;;;;;;;42.83;21.17;;;7.60;99.90;;;;;;5075707;28;20118;-73
2021/12/16 04:09:14;;;;;;;37.80;18.77;;;7.60;99.90;;;;;;5053074;28;20079;-71
2021/12/16 04:11:44;;;;;;;37.10;18.50;;;7.60;99.90;;;;;;5060141;28;20084;-71
2021/12/16 04:14:12;;;;;;;39.42;19.60;;;7.50;99.90;;;;;;5093381;28;20092;-70
2021/12/16 04:16:40;;;;;;;37.53;19.30;;;7.60;99.90;;;;;;5059357;28;20084;-70
2021/12/16 04:19:12;;;;;;;37.17;18.30;;;7.50;99.90;;;;;;5062281;28;20114;-71
2021/12/16 04:21:43;;;;;;;37.53;19.50;;;7.50;99.90;;;;;;5051053;28;20045;-71
2021/12/16 04:24:10;;;;;;;40.88;19.45;;;7.40;99.90;;;;;;5060524;28;20049;-72
2021/12/16 04:26:37;;;;;;;37.90;19.02;;;7.40;99.90;;;;;;5041829;28;20104;-70
2021/12/16 04:29:04;;;;;;;39.45;20.00;;;7.40;99.90;;;;;;5043334;28;20048;-70
2021/12/16 04:31:31;;;;;;;39.25;19.20;;;7.40;99.90;;;;;;5056127;28;20041;-71
2021/12/16 04:33:57;;;;;;;37.95;18.33;;;7.40;99.90;;;;;;5055228;28;20114;-72
2021/12/16 04:36:23;;;;;;;39.50;19.40;;;7.40;99.90;;;;;;5057287;28;20072;-73
2021/12/16 04:38:49;;;;;;;41.78;20.23;;;7.40;99.90;;;;;;5054032;28;20052;-71
2021/12/16 04:41:17;;;;;;;42.33;19.85;;;7.40;99.90;;;;;;5043052;28;20025;-71
2021/12/16 04:43:52;;;;;;;43.47;19.02;;;7.40;99.90;;;;;;5058323;28;20037;-71
2021/12/16 04:46:21;;;;;;;42.83;19.17;;;7.50;99.90;;;;;;5076976;28;20049;-72
2021/12/16 04:48:51;;;;;;;38.92;19.13;;;7.40;99.90;;;;;;5060011;28;20033;-73
2021/12/16 04:51:17;;;;;;;41.88;20.13;;;7.50;99.90;;;;;;5058046;28;20045;-72
2021/12/16 04:53:43;;;;;;;40.50;19.85;;;7.50;99.90;;;;;;5044187;28;20033;-73
2021/12/16 04:56:11;;;;;;;39.40;19.42;;;7.50;99.90;;;;;;5073931;28;20629;-72
2021/12/16 04:58:37;;;;;;;45.38;20.83;;;7.40;99.90;;;;;;5060550;28;20033;-71
2021/12/16 05:01:04;;;;;;;41.58;19.92;;;7.50;99.90;;;;;;5042030;28;20037;-70
2021/12/16 05:03:31;;;;;;;40.53;19.38;;;7.50;99.90;;;;;;5075787;28;20049;-71
2021/12/16 05:05:57;;;;;;;42.55;19.27;;;7.50;99.90;;;;;;5026443;28;20044;-71
2021/12/16 05:08:23;;;;;;;40.58;20.70;;;7.50;99.90;;;;;;5055943;28;20080;-71
2021/12/16 05:10:52;;;;;;;40.35;20.02;;;7.40;99.90;;;;;;5076828;28;20049;-71
2021/12/16 05:13:22;;;;;;;39.33;18.50;;;7.50;99.90;;;;;;5073406;28;20090;-70
2021/12/16 05:15:48;;;;;;;43.47;19.60;;;7.40;99.90;;;;;;5076772;28;20041;-71
2021/12/16 05:18:23;;;;;;;40.30;18.98;;;7.40;99.90;;;;;;5058012;28;20131;-70
2021/12/16 05:20:50;;;;;;;43.72;20.50;;;7.40;99.90;;;;;;5057402;28;20496;-71
2021/12/16 05:28:32;;;;;;;40.95;19.67;;;7.40;99.90;;;;;;5055683;28;20061;-70
2021/12/16 05:30:59;;;;;;;38.45;19.10;;;7.40;99.90;;;;;;5069440;28;20073;-70
2021/12/16 05:33:25;;;;;;;38.72;19.58;;;7.40;99.90;;;;;;5039903;28;20038;-71
2021/12/16 05:35:53;;;;;;;40.03;20.52;;;7.40;99.90;;;;;;5042497;28;20049;-71
2021/12/16 05:38:19;;;;;;;41.28;19.60;;;7.40;99.90;;;;;;5049620;28;20048;-71
2021/12/16 05:40:44;;;;;;;40.53;19.38;;;7.40;99.90;;;;;;5059722;28;20486;-70
2021/12/16 05:43:15;;;;;;;42.80;19.27;;;7.40;99.90;;;;;;5055952;28;20509;-70
2021/12/16 05:45:42;;;;;;;46.38;20.50;;;7.40;99.90;;;;;;5075617;28;20076;-70
2021/12/16 05:48:11;;;;;;;41.67;19.77;;;7.30;99.90;;;;;;5024121;28;20098;-70
2021/12/16 05:50:40;;;;;;;41.50;19.10;;;7.40;99.90;;;;;;5059705;28;20425;-71
2021/12/16 05:53:06;;;;;;;39.72;19.10;;;7.30;99.90;;;;;;5059277;28;20049;-71
2021/12/16 05:55:32;;;;;;;43.10;19.55;;;7.30;99.90;;;;;;5090168;28;20489;-71
2021/12/16 05:58:00;;;;;;;44.30;19.33;;;7.40;99.90;;;;;;5042504;28;20045;-71
2021/12/16 06:00:33;;;;;;;43.17;19.00;;;7.40;99.90;;;;;;5056289;28;20084;-71
2021/12/16 06:02:59;;;;;;;39.92;19.40;;;7.40;99.90;;;;;;5059314;28;20100;-71
2021/12/16 06:05:25;;;;;;;40.95;19.45;;;7.40;99.90;;;;;;5057901;28;20068;-71
2021/12/16 06:07:52;;;;;;;46.28;19.83;;;7.40;99.90;;;;;;5057016;28;20530;-71
2021/12/16 06:13:08;;;;;;;35.63;18.75;;;7.40;99.90;;;;;;5031879;28;20053;-70
2021/12/16 06:28:50;;;;;;;42.08;16.90;;;7.50;99.90;;;;;;5092210;28;20056;-72
2021/12/16 06:31:16;;;;;;;42.55;19.33;;;7.40;99.90;;;;;;5063164;28;20045;-70
2021/12/16 06:33:43;;;;;;;39.85;17.20;;;7.50;99.90;;;;;;5068937;28;20046;-70
2021/12/16 06:36:09;;;;;;;37.05;18.08;;;7.50;99.90;;;;;;5071291;28;20042;-71
2021/12/16 06:38:35;;;;;;;37.45;17.35;;;7.50;99.90;;;;;;5082950;28;20778;-72
2021/12/16 06:41:01;;;;;;;44.15;19.20;;;7.60;99.90;;;;;;5041819;28;20079;-71
2021/12/16 06:43:27;;;;;;;36.50;17.33;;;7.60;99.90;;;;;;5081016;28;20049;-71
2021/12/16 06:45:55;;;;;;;37.92;18.25;;;7.50;99.90;;;;;;5057846;28;20041;-70
2021/12/16 06:48:27;;;;;;;42.38;18.25;;;7.50;99.90;;;;;;5040749;28;20053;-70
2021/12/16 06:53:28;;;;;;;45.10;18.25;;;7.60;99.90;;;;;;5091614;28;20045;-70
2021/12/16 06:56:05;;;;;;;36.08;17.92;;;7.60;99.90;;;;;;5055471;28;20207;-70
2021/12/16 06:58:41;;;;;;;40.38;19.05;;;7.60;99.90;;;;;;5057598;28;20072;-71
2021/12/16 07:01:51;;;;;;;39.42;17.35;;;7.50;99.90;;;;;;5072121;28;20515;-71
2021/12/16 07:04:07;;;;;;;36.90;17.83;;;7.60;99.90;;;;;;5052904;28;20149;-71
2021/12/16 07:06:34;;;;;;;41.45;18.80;;;7.60;99.90;;;;;;5091466;28;20064;-71
2021/12/16 07:09:13;;;;;;;41.45;18.35;;;7.50;99.90;;;;;;5087422;28;20047;-70
2021/12/16 07:11:44;;;;;;;39.22;17.98;;;7.50;99.90;;;;;;5057491;28;20096;-70
2021/12/16 07:14:14;;;;;;;40.85;18.25;;;7.50;99.90;;;;;;5049384;28;20072;-70
2021/12/16 07:16:43;;;;;;;39.63;18.77;;;7.40;99.90;;;;;;5078100;28;20045;-70
2021/12/16 07:19:09;;;;;;;36.90;18.45;;;7.40;99.90;;;;;;5086419;28;20092;-71
2021/12/16 07:21:38;;;;;;;40.70;17.63;;;7.40;99.90;;;;;;5069645;28;20049;-70
2021/12/16 07:24:13;;;;;;;39.17;19.13;;;7.40;99.90;;;;;;5031935;28;20099;-70
2021/12/16 07:26:39;;;;;;;43.63;19.45;;;7.40;99.90;;;;;;5042026;28;20044;-69
2021/12/16 07:29:06;;;;;;;42.20;17.95;;;7.30;99.90;;;;;;5041300;28;20163;-70
2021/12/16 07:31:33;;;;;;;40.92;18.45;;;7.20;99.90;;;;;;5017221;28;20482;-69
2021/12/16 07:34:00;;;;;;;37.10;17.42;;;7.20;99.90;;;;;;5040660;28;20104;-70
2021/12/16 07:36:26;;;;;;;39.58;18.50;;;7.10;99.90;;;;;;5072820;28;20074;-71
2021/12/16 07:38:52;;;;;;;38.03;18.58;;;7.10;99.90;;;;;;5052603;28;20045;-71
2021/12/16 07:41:21;;;;;;;37.42;18.70;;;7.10;99.90;;;;;;5058703;28;20081;-70
2021/12/16 07:44:09;;;;;;;39.63;18.48;;;7.10;99.90;;;;;;5054581;28;20352;-70
2021/12/16 07:46:45;;;;;;;41.53;19.05;;;7.00;99.90;;;;;;5052496;28;20495;-70
2021/12/16 07:49:14;;;;;;;42.00;18.75;;;7.00;99.90;;;;;;5041116;28;20087;-70
2021/12/16 07:51:41;;;;;;;38.20;19.20;;;7.00;99.90;;;;;;5053684;28;20037;-69
2021/12/16 07:54:08;;;;;;;37.88;18.30;;;6.90;99.90;;;;;;5040739;28;20095;-69
2021/12/16 07:56:34;;;;;;;36.45;17.92;;;6.90;99.90;;;;;;5055635;28;20053;-70
2021/12/16 07:59:00;;;;;;;38.13;18.13;;;6.90;99.90;;;;;;5074866;28;20049;-69
2021/12/16 08:01:27;;;;;;;40.25;17.75;;;6.90;99.90;;;;;;5038610;28;20059;-69
2021/12/16 08:03:53;;;;;;;41.47;18.67;;;6.80;99.90;;;;;;5046717;28;20128;-70
2021/12/16 08:06:23;;;;;;;44.97;17.50;;;6.80;99.90;;;;;;5063008;28;20045;-70
2021/12/16 08:09:01;;;;;;;32.75;16.63;;;7.30;99.90;;;;;;5073759;28;20047;-70
2021/12/16 08:11:30;;;;;;;41.10;18.55;;;6.80;99.90;;;;;;5089759;28;20045;-71
2021/12/16 08:13:56;;;;;;;37.38;17.25;;;6.70;99.90;;;;;;5051379;28;20055;-70
2021/12/16 08:16:22;;;;;;;34.08;17.13;;;6.70;99.90;;;;;;5037336;28;20069;-71
2021/12/16 08:18:53;;;;;;;36.10;17.30;;;6.70;99.90;;;;;;5035817;28;20053;-71
2021/12/16 08:21:20;;;;;;;40.13;18.38;;;6.70;99.90;;;;;;5031638;28;20040;-70
2021/12/16 08:23:46;;;;;;;40.72;18.98;;;6.70;99.90;;;;;;5040484;28;20532;-71
2021/12/16 08:26:15;;;;;;;35.80;18.30;;;6.70;99.90;;;;;;5064671;28;20052;-71
2021/12/16 08:28:42;;;;;;;44.05;19.40;;;6.70;99.90;;;;;;5055379;28;20096;-71
2021/12/16 08:31:08;;;;;;;38.40;18.92;;;6.70;99.90;;;;;;5076536;28;20076;-71
2021/12/16 08:33:35;;;;;;;47.85;19.45;;;6.80;99.90;;;;;;5043195;28;20041;-71
2021/12/16 08:36:01;;;;;;;43.65;19.02;;;6.80;99.90;;;;;;5085081;28;20045;-71
2021/12/16 08:38:27;;;;;;;43.28;20.00;;;6.90;99.90;;;;;;5041411;28;20056;-71
2021/12/16 08:40:57;;;;;;;46.15;19.55;;;7.00;99.90;;;;;;5053352;28;20185;-71
2021/12/16 08:43:23;;;;;;;42.25;18.45;;;7.10;99.90;;;;;;5066819;28;20116;-71
2021/12/16 08:45:49;;;;;;;43.90;19.92;;;7.20;99.90;;;;;;5069332;28;20123;-71
2021/12/16 08:48:15;;;;;;;45.67;19.83;;;7.20;99.90;;;;;;5071059;28;20088;-70
2021/12/16 08:50:45;;;;;;;44.95;19.67;;;7.30;99.90;;;;;;5049145;28;20490;-71
2021/12/16 08:53:12;;;;;;;44.63;20.95;;;7.40;99.90;;;;;;5060121;28;20053;-71
2021/12/16 08:55:41;;;;;;;42.83;19.80;;;7.40;99.90;;;;;;5078378;28;20037;-71
2021/12/16 08:58:07;;;;;;;41.22;18.20;;;7.40;99.90;;;;;;5075342;28;20103;-71
2021/12/16 09:00:38;;;;;;;45.55;20.77;;;7.40;99.90;;;;;;5046151;28;20053;-70
2021/12/16 09:03:04;;;;;;;44.97;20.70;;;7.40;99.90;;;;;;5026186;28;20053;-70
2021/12/16 09:05:31;;;;;;;41.65;19.23;;;7.40;99.90;;;;;;5071798;28;20049;-71
2021/12/16 09:07:57;;;;;;;42.53;19.63;;;7.50;99.90;;;;;;5062992;28;20509;-71
2021/12/16 09:10:32;;;;;;;51.25;19.33;;;7.50;99.90;;;;;;5039438;28;20051;-70
2021/12/16 09:13:05;;;;;;;45.95;19.08;;;7.50;99.90;;;;;;5066735;28;20046;-71
2021/12/16 09:15:33;;;;;;;41.83;19.17;;;7.50;99.90;;;;;;5060704;28;20052;-69
2021/12/16 09:18:00;;;;;;;44.25;20.08;;;7.60;99.90;;;;;;5037558;28;20045;-69
2021/12/16 09:20:26;;;;;;;48.47;20.90;;;7.60;99.90;;;;;;5046340;28;20053;-70
2021/12/16 09:22:53;;;;;;;50.88;22.58;;;7.60;99.90;;;;;;5039374;28;20045;-69
2021/12/16 09:25:19;;;;;;;53.92;22.15;;;7.70;99.90;;;;;;5080391;28;20049;-70
2021/12/16 09:27:46;;;;;;;53.67;22.77;;;7.70;99.90;;;;;;5073866;28;20054;-70
2021/12/16 09:30:16;;;;;;;48.65;20.48;;;7.70;99.90;;;;;;5043873;28;20088;-70
2021/12/16 09:32:42;;;;;;;53.67;21.20;;;7.70;99.90;;;;;;5042268;28;20045;-70
2021/12/16 09:35:10;;;;;;;42.80;19.95;;;7.70;99.90;;;;;;5036985;28;20048;-70
2021/12/16 09:37:37;;;;;;;47.60;21.17;;;7.70;99.90;;;;;;5023051;28;20076;-70
2021/12/16 09:40:07;;;;;;;49.85;21.98;;;7.70;99.90;;;;;;5057906;28;20050;-69
2021/12/16 09:42:35;;;;;;;47.92;20.42;;;7.80;99.90;;;;;;5074617;28;20049;-69
2021/12/16 09:45:02;;;;;;;58.00;22.02;;;7.90;99.90;;;;;;5039500;28;20569;-69
2021/12/16 09:47:28;;;;;;;47.95;21.02;;;7.80;99.90;;;;;;5081411;28;20041;-69
2021/12/16 09:49:54;;;;;;;55.28;21.15;;;7.90;99.90;;;;;;5055820;28;20116;-69
2021/12/16 09:52:20;;;;;;;49.65;22.58;;;7.90;99.90;;;;;;5037508;28;20045;-69
2021/12/16 09:54:47;;;;;;;54.75;21.98;;;7.90;99.90;;;;;;5071202;28;20057;-69
2021/12/16 09:57:15;;;;;;;59.40;23.13;;;7.90;99.90;;;;;;5071559;28;20048;-69
2021/12/16 09:59:41;;;;;;;48.45;22.48;;;8.00;99.90;;;;;;5045978;28;20413;-69
2021/12/16 10:02:12;;;;;;;49.95;20.67;;;8.00;99.90;;;;;;5041618;28;20041;-69
2021/12/16 10:04:39;;;;;;;55.78;21.85;;;8.00;99.90;;;;;;5063663;28;20121;-69
2021/12/16 10:07:19;;;;;;;53.15;22.27;;;8.10;99.90;;;;;;5045049;28;20045;-70
2021/12/16 10:09:48;;;;;;;60.15;21.23;;;8.10;99.90;;;;;;5046796;28;20042;-69
2021/12/16 10:12:18;;;;;;;55.33;22.52;;;8.10;99.90;;;;;;5069460;28;20057;-69
2021/12/16 10:17:28;;;;;;;56.03;21.75;;;8.10;99.90;;;;;;5037524;28;20118;-69
2021/12/16 10:19:56;;;;;;;52.85;21.23;;;8.10;99.90;;;;;;5036136;28;20045;-69
2021/12/16 10:22:32;;;;;;;54.92;21.20;;;8.10;99.90;;;;;;5071550;28;20397;-69
2021/12/16 10:25:15;;;;;;;54.65;20.40;;;8.20;99.90;;;;;;5037065;28;20098;-69
2021/12/16 10:28:12;;;;;;;47.47;20.13;;;8.20;99.90;;;;;;5052689;28;20091;-69
2021/12/16 10:30:58;;;;;;;47.10;19.88;;;7.70;99.90;;;;;;5046256;28;20136;-68
2021/12/16 10:33:24;;;;;;;49.33;22.10;;;8.20;99.90;;;;;;5052428;28;20144;-69
2021/12/16 10:36:07;;;;;;;49.88;21.73;;;8.20;99.90;;;;;;5043549;28;20069;-68
2021/12/16 10:39:00;;;;;;;55.60;21.52;;;8.30;99.90;;;;;;5047092;28;20064;-69
2021/12/16 10:41:34;;;;;;;49.47;19.60;;;8.30;99.90;;;;;;5030573;28;20053;-69
2021/12/16 10:44:13;;;;;;;44.88;19.73;;;8.30;99.90;;;;;;5070500;28;20037;-68
2021/12/16 10:46:46;;;;;;;40.03;17.13;;;8.40;99.90;;;;;;5043952;28;20058;-69
2021/12/16 10:49:16;;;;;;;35.47;14.75;;;9.00;99.90;;;;;;5039811;28;20207;-68
2021/12/16 10:51:45;;;;;;;39.85;15.35;;;8.40;99.90;;;;;;5038904;28;20041;-69
2021/12/16 10:54:23;;;;;;;40.97;16.52;;;8.40;99.90;;;;;;5071435;28;20541;-69
2021/12/16 10:56:53;;;;;;;39.42;15.52;;;8.40;99.90;;;;;;5037956;28;20048;-69
2021/12/16 10:59:24;;;;;;;41.92;16.88;;;8.40;99.90;;;;;;5053269;28;20049;-69
2021/12/16 11:01:59;;;;;;;42.50;17.30;;;8.40;99.90;;;;;;5072473;28;20198;-69
2021/12/16 11:04:33;;;;;;;47.65;17.00;;;8.40;99.90;;;;;;5072097;28;20508;-69
2021/12/16 11:07:25;;;;;;;48.17;17.55;;;8.40;99.90;;;;;;5044882;28;20108;-69
2021/12/16 11:10:13;;;;;;;73.47;19.55;;;8.30;99.90;;;;;;5070184;28;20088;-69
2021/12/16 11:12:47;;;;;;;52.40;17.70;;;8.30;99.90;;;;;;5041126;28;20080;-70
2021/12/16 11:15:40;;;;;;;50.80;18.33;;;8.30;99.90;;;;;;5073919;28;20057;-69
2021/12/16 11:18:12;;;;;;;47.25;19.35;;;8.30;99.90;;;;;;5036322;28;20072;-70
2021/12/16 11:20:43;;;;;;;44.95;18.40;;;8.30;99.90;;;;;;5044270;28;20048;-70
2021/12/16 11:23:21;;;;;;;47.42;18.48;;;8.30;99.90;;;;;;5040383;28;20059;-70
2021/12/16 11:25:53;;;;;;;46.70;18.75;;;8.40;99.90;;;;;;5051728;28;20049;-69
2021/12/16 11:28:19;;;;;;;58.78;20.42;;;8.30;99.90;;;;;;5077008;28;20142;-69
2021/12/16 11:31:03;;;;;;;58.58;19.50;;;8.30;99.90;;;;;;5079752;28;20037;-70
2021/12/16 11:33:32;;;;;;;51.22;18.58;;;8.40;99.90;;;;;;5033277;28;20077;-69
2021/12/16 11:36:04;;;;;;;52.05;17.67;;;8.40;99.90;;;;;;5043593;28;20068;-69
2021/12/16 11:38:45;;;;;;;47.35;17.95;;;8.40;99.90;;;;;;5080149;28;20049;-69
2021/12/16 11:41:25;;;;;;;43.03;17.83;;;8.40;99.90;;;;;;5034972;28;20080;-69
2021/12/16 11:43:51;;;;;;;47.45;19.10;;;8.40;99.90;;;;;;5039959;28;20057;-69
2021/12/16 11:46:19;;;;;;;49.58;18.50;;;8.40;99.90;;;;;;5068406;28;20065;-70
2021/12/16 11:48:45;;;;;;;43.30;17.48;;;8.40;99.90;;;;;;5042527;28;20083;-69
2021/12/16 11:51:17;;;;;;;43.97;17.33;;;8.50;99.90;;;;;;5039158;28;20132;-70
2021/12/16 11:53:56;;;;;;;47.42;19.73;;;8.40;99.90;;;;;;5054171;28;20184;-69
2021/12/16 11:56:45;;;;;;;45.03;17.52;;;8.40;99.90;;;;;;5067182;28;20049;-69
2021/12/16 11:59:19;;;;;;;50.85;18.85;;;8.50;99.90;;;;;;5067912;28;20053;-70
2021/12/16 12:01:45;;;;;;;49.80;19.30;;;8.50;99.90;;;;;;5034409;28;20049;-69
2021/12/16 12:04:11;;;;;;;42.72;17.98;;;8.50;99.90;;;;;;5040073;28;20088;-71
2021/12/16 12:06:38;;;;;;;44.30;18.15;;;8.90;99.90;;;;;;5080117;28;20049;-70
2021/12/16 12:09:07;;;;;;;52.97;19.77;;;8.50;99.90;;;;;;5047763;28;20068;-69
2021/12/16 12:11:36;;;;;;;46.65;19.33;;;8.50;99.90;;;;;;5061920;28;20111;-69
2021/12/16 12:14:10;;;;;;;50.65;20.35;;;8.60;99.90;;;;;;5036230;28;20068;-69
2021/12/16 12:16:43;;;;;;;44.55;17.60;;;8.60;99.90;;;;;;5067164;28;20067;-70
2021/12/16 12:19:43;;;;;;;45.13;18.50;;;8.60;99.90;;;;;;5048764;28;20045;-71
2021/12/16 12:22:09;;;;;;;37.55;16.63;;;8.60;99.90;;;;;;5054186;28;20071;-70
2021/12/16 12:24:46;;;;;;;38.03;15.52;;;8.60;99.90;;;;;;5061889;28;20045;-70
2021/12/16 12:27:22;;;;;;;38.25;15.18;;;8.60;99.90;;;;;;5069905;28;20056;-70
2021/12/16 12:29:52;;;;;;;45.15;16.77;;;8.60;99.90;;;;;;5056878;28;20084;-70
2021/12/16 12:32:21;;;;;;;34.55;15.57;;;8.60;99.90;;;;;;5058957;28;20054;-70
2021/12/16 12:34:52;;;;;;;39.30;16.52;;;8.60;99.90;;;;;;5067628;28;20108;-69
2021/12/16 12:37:20;;;;;;;44.83;17.45;;;8.70;99.90;;;;;;5068074;28;20076;-69
2021/12/16 12:39:55;;;;;;;42.47;17.08;;;8.70;99.90;;;;;;5044845;28;20040;-69
2021/12/16 12:42:21;;;;;;;40.80;17.10;;;8.70;99.90;;;;;;5070745;28;20420;-70
2021/12/16 12:44:47;;;;;;;39.67;16.15;;;8.70;99.90;;;;;;5075627;28;20073;-70
2021/12/16 12:47:17;;;;;;;40.05;16.25;;;8.60;99.90;;;;;;5043307;28;20135;-70
2021/12/16 12:49:44;;;;;;;43.13;17.52;;;8.60;99.90;;;;;;5051944;28;20065;-70
2021/12/16 12:52:16;;;;;;;47.72;16.67;;;8.60;99.90;;;;;;5069045;28;20052;-70
2021/12/16 12:54:57;;;;;;;41.13;17.95;;;8.60;99.90;;;;;;5044180;28;20068;-70
2021/12/16 12:57:26;;;;;;;45.33;17.63;;;8.60;99.90;;;;;;5046816;28;20046;-69
2021/12/16 12:59:53;;;;;;;48.72;17.92;;;8.70;99.90;;;;;;5039066;28;20048;-70
2021/12/16 13:02:35;;;;;;;45.38;18.88;;;8.70;99.90;;;;;;5084633;28;20530;-70
2021/12/16 13:05:12;;;;;;;39.53;16.38;;;8.70;99.90;;;;;;5049465;28;20049;-71
2021/12/16 13:07:45;;;;;;;43.42;16.48;;;8.70;99.90;;;;;;5042156;28;20124;-71
2021/12/16 13:10:21;;;;;;;39.90;16.13;;;8.70;99.90;;;;;;5074671;28;20503;-70
2021/12/16 13:12:59;;;;;;;43.03;16.25;;;8.70;99.90;;;;;;5044178;28;20057;-69
2021/12/16 13:15:48;;;;;;;40.35;16.23;;;8.70;99.90;;;;;;5054284;28;20132;-69
2021/12/16 13:24:13;;;;;;;44.42;16.77;;;8.60;99.90;;;;;;5047878;28;20053;-72
2021/12/16 13:26:49;;;;;;;41.03;15.38;;;8.60;99.90;;;;;;5038314;28;20060;-70
2021/12/16 13:34:43;;;;;;;37.50;15.52;;;8.60;99.90;;;;;;5039138;28;20077;-71
2021/12/16 13:37:23;;;;;;;37.35;15.55;;;8.60;99.90;;;;;;5044706;28;20053;-72
2021/12/16 13:39:56;;;;;;;36.42;14.25;;;8.60;99.90;;;;;;5052385;28;20674;-70
2021/12/16 13:42:23;;;;;;;36.30;14.63;;;8.60;99.90;;;;;;5070358;28;20504;-71
2021/12/16 13:44:56;;;;;;;35.83;14.65;;;8.60;99.90;;;;;;5039366;28;20049;-71
2021/12/16 13:47:41;;;;;;;32.88;14.52;;;8.60;99.90;;;;;;5036082;28;20053;-71
2021/12/16 14:02:14;;;;;;;31.90;12.93;;;8.70;99.90;;;;;;5042641;28;20466;-71
2021/12/16 14:10:19;;;;;;;35.08;13.40;;;8.60;99.90;;;;;;5070042;28;20084;-70
2021/12/16 14:17:07;;;;;;;37.35;13.80;;;8.70;99.90;;;;;;5057654;28;20586;-70
2021/12/16 14:25:42;;;;;;;39.50;14.30;;;8.60;99.90;;;;;;5038983;28;20127;-70
2021/12/16 14:42:11;;;;;;;37.85;14.10;;;8.60;99.90;;;;;;5043714;28;20053;-69
2021/12/16 14:50:36;;;;;;;36.72;14.90;;;8.70;99.90;;;;;;5044960;28;20047;-69
2021/12/16 14:53:16;;;;;;;30.17;13.43;;;8.70;99.90;;;;;;5038639;28;20038;-69
2021/12/16 14:55:42;;;;;;;38.85;13.55;;;8.70;99.90;;;;;;5043635;28;20060;-70
2021/12/16 14:58:08;;;;;;;35.67;13.80;;;8.60;99.90;;;;;;5050178;28;20053;-70
2021/12/16 15:00:47;;;;;;;33.50;13.07;;;8.70;99.90;;;;;;5060551;28;20044;-70
2021/12/16 15:03:26;;;;;;;27.63;12.00;;;8.70;99.90;;;;;;5053269;28;20060;-71
2021/12/16 15:06:01;;;;;;;28.70;11.20;;;8.70;99.90;;;;;;5049009;28;20052;-70
2021/12/16 15:08:40;;;;;;;31.20;11.63;;;8.60;99.90;;;;;;5034015;28;20497;-70
2021/12/16 15:11:11;;;;;;;27.80;11.00;;;8.60;99.90;;;;;;5070618;28;20050;-69
2021/12/16 15:13:44;;;;;;;28.48;10.88;;;8.60;99.90;;;;;;5043044;28;20053;-69
2021/12/16 15:39:17;;;;;;;53.28;19.58;;;8.50;99.90;;;;;;5061966;28;20053;-70
2021/12/16 15:44:21;;;;;;;55.30;18.23;;;8.40;99.90;;;;;;5068292;28;20060;-70
2021/12/16 15:46:50;;;;;;;48.95;17.52;;;8.40;99.90;;;;;;5049200;28;20045;-71
2021/12/16 15:49:17;;;;;;;59.88;18.58;;;8.40;99.90;;;;;;5042937;28;20065;-71
2021/12/16 15:51:43;;;;;;;57.72;18.60;;;8.30;99.90;;;;;;5053129;28;20038;-71
2021/12/16 15:54:10;;;;;;;60.15;18.30;;;8.30;99.90;;;;;;5038744;28;20068;-72
2021/12/16 15:56:38;;;;;;;52.38;17.30;;;8.30;99.90;;;;;;5065078;28;20050;-70
2021/12/16 15:59:12;;;;;;;47.95;17.83;;;8.30;99.90;;;;;;5041122;28;20068;-70
2021/12/16 16:01:45;;;;;;;49.10;18.60;;;8.30;99.90;;;;;;5029043;28;20056;-70
2021/12/16 16:04:26;;;;;;;50.33;17.33;;;8.30;99.90;;;;;;5065290;28;20075;-70
2021/12/16 16:06:57;;;;;;;49.03;16.17;;;8.30;99.90;;;;;;5072541;28;20129;-70
2021/12/16 16:09:29;;;;;;;57.25;19.75;;;8.30;99.90;;;;;;5047615;28;20052;-71
2021/12/16 16:11:56;;;;;;;77.50;18.95;;;8.30;99.90;;;;;;5074037;28;20536;-71
2021/12/16 16:14:24;;;;;;;74.43;19.73;;;8.30;99.90;;;;;;5033385;28;20105;-70
2021/12/16 16:16:53;;;;;;;61.67;19.05;;;8.30;99.90;;;;;;5047012;28;20096;-70
2021/12/16 16:19:40;;;;;;;54.17;18.08;;;8.30;99.90;;;;;;5041627;28;20038;-72
2021/12/16 16:22:06;;;;;;;;;;;8.30;99.90;;;;;;5023316;28;20147;-72
2021/12/16 16:24:38;;;;;;;76.05;20.17;;;8.30;99.90;;;;;;5040375;28;20447;-69
2021/12/16 16:27:12;;;;;;;68.40;17.48;;;8.20;99.90;;;;;;5041928;28;20053;-70
2021/12/16 16:29:42;;;;;;;58.80;17.52;;;8.20;99.90;;;;;;5036678;28;20037;-70
2021/12/16 16:32:08;;;;;;;64.93;17.00;;;8.20;99.90;;;;;;5039988;28;20476;-70
2021/12/16 16:34:53;;;;;;;62.05;17.08;;;8.10;99.90;;;;;;5037126;28;20109;-71
2021/12/16 16:37:33;;;;;;;72.47;17.20;;;8.10;99.90;;;;;;5066984;28;20068;-70
2021/12/16 16:40:04;;;;;;;77.80;16.75;;;8.10;99.90;;;;;;5036592;28;20064;-70
2021/12/16 16:42:37;;;;;;;69.93;15.80;;;8.00;99.90;;;;;;5020720;28;20037;-70
2021/12/16 16:45:05;;;;;;;57.50;15.38;;;8.00;99.90;;;;;;5070968;28;20033;-71
2021/12/16 16:47:35;;;;;;;65.38;14.43;;;8.00;99.90;;;;;;5070229;28;20056;-70